sensor_id;sensor_type;location;lat;lon;timestamp;P1;durP1;ratioP1;P2;durP2;ratioP2
32393;SDS011;18853;45.426;9.206;2022-09-25T00:00:48;36.65;;;32.78;;
32393;SDS011;18853;45.426;9.206;2022-09-25T00:03:17;42.95;;;38.33;;
32393;SDS011;18853;45.426;9.206;2022-09-25T00:05:44;41.05;;;36.80;;
32393;SDS011;18853;45.426;9.206;2022-09-25T00:08:10;44.47;;;39.53;;
32393;SDS011;18853;45.426;9.206;2022-09-25T00:10:40;45.90;;;39.88;;
32393;SDS011;18853;45.426;9.206;2022-09-25T00:13:11;43.10;;;37.80;;
32393;SDS011;18853;45.426;9.206;2022-09-25T00:15:37;40.92;;;36.58;;
32393;SDS011;18853;45.426;9.206;2022-09-25T00:18:09;41.80;;;37.35;;
32393;SDS011;18853;45.426;9.206;2022-09-25T00:20:34;41.20;;;34.38;;
32393;SDS011;18853;45.426;9.206;2022-09-25T00:23:01;36.80;;;32.28;;
32393;SDS011;18853;45.426;9.206;2022-09-25T00:25:27;40.20;;;35.55;;
32393;SDS011;18853;45.426;9.206;2022-09-25T00:27:53;34.20;;;30.60;;
32393;SDS011;18853;45.426;9.206;2022-09-25T00:30:19;38.45;;;33.92;;
32393;SDS011;18853;45.426;9.206;2022-09-25T00:32:44;32.15;;;27.80;;
32393;SDS011;18853;45.426;9.206;2022-09-25T00:35:10;31.63;;;28.40;;
32393;SDS011;18853;45.426;9.206;2022-09-25T00:37:36;31.25;;;27.13;;
32393;SDS011;18853;45.426;9.206;2022-09-25T00:40:02;32.58;;;28.58;;
32393;SDS011;18853;45.426;9.206;2022-09-25T00:42:29;33.75;;;30.08;;
32393;SDS011;18853;45.426;9.206;2022-09-25T00:44:59;32.67;;;29.23;;
32393;SDS011;18853;45.426;9.206;2022-09-25T00:50:04;29.20;;;26.10;;
32393;SDS011;18853;45.426;9.206;2022-09-25T00:52:36;29.40;;;25.98;;
32393;SDS011;18853;45.426;9.206;2022-09-25T00:55:04;29.10;;;24.75;;
32393;SDS011;18853;45.426;9.206;2022-09-25T00:57:32;30.35;;;27.13;;
32393;SDS011;18853;45.426;9.206;2022-09-25T01:00:10;26.23;;;23.52;;
32393;SDS011;18853;45.426;9.206;2022-09-25T01:02:41;27.85;;;23.65;;
32393;SDS011;18853;45.426;9.206;2022-09-25T01:05:11;28.35;;;24.63;;
32393;SDS011;18853;45.426;9.206;2022-09-25T01:07:42;27.73;;;24.73;;
32393;SDS011;18853;45.426;9.206;2022-09-25T01:10:10;30.00;;;26.77;;
32393;SDS011;18853;45.426;9.206;2022-09-25T01:12:39;29.85;;;26.83;;
32393;SDS011;18853;45.426;9.206;2022-09-25T01:15:12;29.25;;;25.13;;
32393;SDS011;18853;45.426;9.206;2022-09-25T01:17:44;31.00;;;27.77;;
32393;SDS011;18853;45.426;9.206;2022-09-25T01:20:39;25.33;;;22.63;;
32393;SDS011;18853;45.426;9.206;2022-09-25T01:25:59;33.45;;;29.52;;
32393;SDS011;18853;45.426;9.206;2022-09-25T01:28:57;31.50;;;28.13;;
32393;SDS011;18853;45.426;9.206;2022-09-25T01:39:36;28.92;;;25.83;;
32393;SDS011;18853;45.426;9.206;2022-09-25T01:42:10;30.23;;;26.73;;
32393;SDS011;18853;45.426;9.206;2022-09-25T01:44:57;28.98;;;25.88;;
32393;SDS011;18853;45.426;9.206;2022-09-25T01:47:30;28.40;;;25.33;;
32393;SDS011;18853;45.426;9.206;2022-09-25T01:50:04;26.35;;;23.63;;
32393;SDS011;18853;45.426;9.206;2022-09-25T01:52:37;24.05;;;21.45;;
32393;SDS011;18853;45.426;9.206;2022-09-25T01:55:15;23.45;;;20.95;;
32393;SDS011;18853;45.426;9.206;2022-09-25T01:57:55;27.38;;;23.40;;
32393;SDS011;18853;45.426;9.206;2022-09-25T02:00:44;25.33;;;22.15;;
32393;SDS011;18853;45.426;9.206;2022-09-25T02:03:22;25.98;;;21.67;;
32393;SDS011;18853;45.426;9.206;2022-09-25T02:05:59;24.15;;;21.55;;
32393;SDS011;18853;45.426;9.206;2022-09-25T02:08:30;24.42;;;21.73;;
32393;SDS011;18853;45.426;9.206;2022-09-25T02:11:02;22.45;;;20.10;;
32393;SDS011;18853;45.426;9.206;2022-09-25T02:13:31;25.00;;;22.17;;
32393;SDS011;18853;45.426;9.206;2022-09-25T02:16:09;25.70;;;22.63;;
32393;SDS011;18853;45.426;9.206;2022-09-25T02:18:40;23.25;;;20.42;;
32393;SDS011;18853;45.426;9.206;2022-09-25T02:26:41;19.77;;;17.35;;
32393;SDS011;18853;45.426;9.206;2022-09-25T02:29:07;20.35;;;18.00;;
32393;SDS011;18853;45.426;9.206;2022-09-25T02:31:34;24.13;;;21.55;;
32393;SDS011;18853;45.426;9.206;2022-09-25T02:34:04;21.35;;;18.88;;
32393;SDS011;18853;45.426;9.206;2022-09-25T02:36:30;23.05;;;20.70;;
32393;SDS011;18853;45.426;9.206;2022-09-25T02:38:58;19.83;;;17.85;;
32393;SDS011;18853;45.426;9.206;2022-09-25T02:49:23;23.80;;;21.23;;
32393;SDS011;18853;45.426;9.206;2022-09-25T02:54:53;20.85;;;18.73;;
32393;SDS011;18853;45.426;9.206;2022-09-25T03:00:02;22.50;;;19.33;;
32393;SDS011;18853;45.426;9.206;2022-09-25T03:02:31;20.90;;;18.52;;
32393;SDS011;18853;45.426;9.206;2022-09-25T03:04:58;24.50;;;21.90;;
32393;SDS011;18853;45.426;9.206;2022-09-25T03:07:24;22.52;;;20.10;;
32393;SDS011;18853;45.426;9.206;2022-09-25T03:09:51;23.27;;;20.92;;
32393;SDS011;18853;45.426;9.206;2022-09-25T03:12:19;20.90;;;18.58;;
32393;SDS011;18853;45.426;9.206;2022-09-25T03:14:45;23.63;;;20.95;;
32393;SDS011;18853;45.426;9.206;2022-09-25T03:17:10;23.00;;;20.60;;
32393;SDS011;18853;45.426;9.206;2022-09-25T03:19:37;21.95;;;18.52;;
32393;SDS011;18853;45.426;9.206;2022-09-25T03:22:03;20.98;;;18.77;;
32393;SDS011;18853;45.426;9.206;2022-09-25T03:24:29;22.38;;;20.02;;
32393;SDS011;18853;45.426;9.206;2022-09-25T03:26:55;21.90;;;19.55;;
32393;SDS011;18853;45.426;9.206;2022-09-25T03:29:21;24.95;;;22.25;;
32393;SDS011;18853;45.426;9.206;2022-09-25T03:31:47;24.40;;;21.80;;
32393;SDS011;18853;45.426;9.206;2022-09-25T03:34:13;21.25;;;18.95;;
32393;SDS011;18853;45.426;9.206;2022-09-25T03:36:41;22.70;;;20.25;;
32393;SDS011;18853;45.426;9.206;2022-09-25T03:39:07;20.13;;;18.02;;
32393;SDS011;18853;45.426;9.206;2022-09-25T03:41:35;18.20;;;16.17;;
32393;SDS011;18853;45.426;9.206;2022-09-25T03:44:01;24.10;;;21.27;;
32393;SDS011;18853;45.426;9.206;2022-09-25T03:46:28;24.38;;;21.75;;
32393;SDS011;18853;45.426;9.206;2022-09-25T03:48:55;22.10;;;19.48;;
32393;SDS011;18853;45.426;9.206;2022-09-25T03:51:23;22.67;;;20.27;;
32393;SDS011;18853;45.426;9.206;2022-09-25T03:53:49;18.23;;;16.15;;
32393;SDS011;18853;45.426;9.206;2022-09-25T03:56:17;20.02;;;17.85;;
32393;SDS011;18853;45.426;9.206;2022-09-25T03:58:44;22.10;;;19.77;;
32393;SDS011;18853;45.426;9.206;2022-09-25T04:01:11;20.52;;;17.98;;
32393;SDS011;18853;45.426;9.206;2022-09-25T04:03:37;21.55;;;19.25;;
32393;SDS011;18853;45.426;9.206;2022-09-25T04:06:04;19.73;;;17.63;;
32393;SDS011;18853;45.426;9.206;2022-09-25T04:08:32;24.15;;;21.17;;
32393;SDS011;18853;45.426;9.206;2022-09-25T04:10:59;20.70;;;18.35;;
32393;SDS011;18853;45.426;9.206;2022-09-25T04:13:29;20.25;;;18.17;;
32393;SDS011;18853;45.426;9.206;2022-09-25T04:15:57;23.45;;;20.95;;
32393;SDS011;18853;45.426;9.206;2022-09-25T04:18:25;20.45;;;17.20;;
32393;SDS011;18853;45.426;9.206;2022-09-25T04:20:54;20.52;;;18.40;;
32393;SDS011;18853;45.426;9.206;2022-09-25T04:23:20;21.80;;;19.50;;
32393;SDS011;18853;45.426;9.206;2022-09-25T04:25:45;21.88;;;19.50;;
32393;SDS011;18853;45.426;9.206;2022-09-25T04:28:13;19.83;;;17.60;;
32393;SDS011;18853;45.426;9.206;2022-09-25T04:30:38;25.58;;;20.75;;
32393;SDS011;18853;45.426;9.206;2022-09-25T04:33:04;21.92;;;19.27;;
32393;SDS011;18853;45.426;9.206;2022-09-25T04:35:48;22.60;;;20.20;;
32393;SDS011;18853;45.426;9.206;2022-09-25T04:38:14;19.08;;;17.00;;
32393;SDS011;18853;45.426;9.206;2022-09-25T04:40:39;18.90;;;15.32;;
32393;SDS011;18853;45.426;9.206;2022-09-25T04:43:05;19.10;;;17.10;;
32393;SDS011;18853;45.426;9.206;2022-09-25T04:45:32;18.30;;;15.82;;
32393;SDS011;18853;45.426;9.206;2022-09-25T04:48:01;19.60;;;15.93;;
32393;SDS011;18853;45.426;9.206;2022-09-25T04:50:27;19.02;;;16.55;;
32393;SDS011;18853;45.426;9.206;2022-09-25T04:52:55;18.63;;;16.63;;
32393;SDS011;18853;45.426;9.206;2022-09-25T04:55:21;19.52;;;17.50;;
32393;SDS011;18853;45.426;9.206;2022-09-25T04:57:51;19.17;;;16.65;;
32393;SDS011;18853;45.426;9.206;2022-09-25T05:00:18;20.80;;;18.60;;
32393;SDS011;18853;45.426;9.206;2022-09-25T05:02:45;17.45;;;15.55;;
32393;SDS011;18853;45.426;9.206;2022-09-25T05:05:11;19.00;;;16.92;;
32393;SDS011;18853;45.426;9.206;2022-09-25T05:07:38;23.75;;;17.75;;
32393;SDS011;18853;45.426;9.206;2022-09-25T05:10:04;18.50;;;15.48;;
32393;SDS011;18853;45.426;9.206;2022-09-25T05:12:32;19.67;;;17.25;;
32393;SDS011;18853;45.426;9.206;2022-09-25T05:14:58;19.35;;;17.02;;
32393;SDS011;18853;45.426;9.206;2022-09-25T05:17:24;17.38;;;15.43;;
32393;SDS011;18853;45.426;9.206;2022-09-25T05:19:50;19.33;;;17.33;;
32393;SDS011;18853;45.426;9.206;2022-09-25T05:22:15;18.95;;;17.00;;
32393;SDS011;18853;45.426;9.206;2022-09-25T05:24:41;19.60;;;17.60;;
32393;SDS011;18853;45.426;9.206;2022-09-25T05:27:07;17.27;;;15.55;;
32393;SDS011;18853;45.426;9.206;2022-09-25T05:29:32;17.55;;;15.43;;
32393;SDS011;18853;45.426;9.206;2022-09-25T05:31:58;15.52;;;13.77;;
32393;SDS011;18853;45.426;9.206;2022-09-25T05:34:24;17.70;;;15.52;;
32393;SDS011;18853;45.426;9.206;2022-09-25T05:36:50;17.30;;;14.40;;
32393;SDS011;18853;45.426;9.206;2022-09-25T05:39:19;17.00;;;15.23;;
32393;SDS011;18853;45.426;9.206;2022-09-25T05:41:45;17.00;;;15.10;;
32393;SDS011;18853;45.426;9.206;2022-09-25T05:44:10;17.20;;;13.82;;
32393;SDS011;18853;45.426;9.206;2022-09-25T05:46:36;16.38;;;14.68;;
32393;SDS011;18853;45.426;9.206;2022-09-25T05:49:03;16.10;;;14.50;;
32393;SDS011;18853;45.426;9.206;2022-09-25T05:51:29;16.73;;;14.45;;
32393;SDS011;18853;45.426;9.206;2022-09-25T05:53:55;14.02;;;12.57;;
32393;SDS011;18853;45.426;9.206;2022-09-25T05:56:21;16.58;;;14.07;;
32393;SDS011;18853;45.426;9.206;2022-09-25T05:58:50;16.85;;;13.02;;
32393;SDS011;18853;45.426;9.206;2022-09-25T06:01:17;15.90;;;14.30;;
32393;SDS011;18853;45.426;9.206;2022-09-25T06:03:43;17.17;;;15.48;;
32393;SDS011;18853;45.426;9.206;2022-09-25T06:06:09;14.10;;;12.73;;
32393;SDS011;18853;45.426;9.206;2022-09-25T06:08:35;14.10;;;12.63;;
32393;SDS011;18853;45.426;9.206;2022-09-25T06:11:01;15.52;;;13.93;;
32393;SDS011;18853;45.426;9.206;2022-09-25T06:13:28;13.80;;;12.30;;
32393;SDS011;18853;45.426;9.206;2022-09-25T06:15:58;18.10;;;16.23;;
32393;SDS011;18853;45.426;9.206;2022-09-25T06:18:25;18.10;;;16.02;;
32393;SDS011;18853;45.426;9.206;2022-09-25T06:20:57;19.17;;;17.00;;
32393;SDS011;18853;45.426;9.206;2022-09-25T06:23:27;20.13;;;17.95;;
32393;SDS011;18853;45.426;9.206;2022-09-25T06:25:53;19.58;;;17.48;;
32393;SDS011;18853;45.426;9.206;2022-09-25T06:28:19;19.58;;;17.67;;
32393;SDS011;18853;45.426;9.206;2022-09-25T06:30:44;20.90;;;18.77;;
32393;SDS011;18853;45.426;9.206;2022-09-25T06:33:11;22.50;;;20.13;;
32393;SDS011;18853;45.426;9.206;2022-09-25T06:38:08;23.55;;;21.05;;
32393;SDS011;18853;45.426;9.206;2022-09-25T06:40:34;24.67;;;20.75;;
32393;SDS011;18853;45.426;9.206;2022-09-25T06:43:02;24.80;;;20.75;;
32393;SDS011;18853;45.426;9.206;2022-09-25T06:45:30;23.13;;;20.67;;
32393;SDS011;18853;45.426;9.206;2022-09-25T06:48:04;25.52;;;21.50;;
32393;SDS011;18853;45.426;9.206;2022-09-25T06:50:43;25.95;;;22.30;;
32393;SDS011;18853;45.426;9.206;2022-09-25T06:53:09;63.97;;;47.40;;
32393;SDS011;18853;45.426;9.206;2022-09-25T06:55:36;162.40;;;113.65;;
32393;SDS011;18853;45.426;9.206;2022-09-25T06:58:03;93.28;;;69.22;;
32393;SDS011;18853;45.426;9.206;2022-09-25T07:00:30;67.75;;;50.75;;
32393;SDS011;18853;45.426;9.206;2022-09-25T07:02:56;39.95;;;31.17;;
32393;SDS011;18853;45.426;9.206;2022-09-25T07:05:42;38.28;;;31.40;;
32393;SDS011;18853;45.426;9.206;2022-09-25T07:08:09;88.20;;;62.72;;
32393;SDS011;18853;45.426;9.206;2022-09-25T07:10:38;47.17;;;37.03;;
32393;SDS011;18853;45.426;9.206;2022-09-25T07:13:03;29.40;;;25.45;;
32393;SDS011;18853;45.426;9.206;2022-09-25T07:15:29;30.83;;;25.98;;
32393;SDS011;18853;45.426;9.206;2022-09-25T07:17:55;44.78;;;35.72;;
32393;SDS011;18853;45.426;9.206;2022-09-25T07:20:21;27.83;;;24.80;;
32393;SDS011;18853;45.426;9.206;2022-09-25T07:22:46;30.35;;;25.98;;
32393;SDS011;18853;45.426;9.206;2022-09-25T07:25:12;28.02;;;24.75;;
32393;SDS011;18853;45.426;9.206;2022-09-25T07:27:38;27.70;;;24.58;;
32393;SDS011;18853;45.426;9.206;2022-09-25T07:30:04;27.70;;;24.80;;
32393;SDS011;18853;45.426;9.206;2022-09-25T07:32:30;29.90;;;25.65;;
32393;SDS011;18853;45.426;9.206;2022-09-25T07:34:56;29.83;;;25.98;;
32393;SDS011;18853;45.426;9.206;2022-09-25T07:37:23;29.52;;;26.33;;
32393;SDS011;18853;45.426;9.206;2022-09-25T07:39:48;29.10;;;25.83;;
32393;SDS011;18853;45.426;9.206;2022-09-25T07:42:14;28.75;;;25.48;;
32393;SDS011;18853;45.426;9.206;2022-09-25T07:44:41;29.95;;;25.90;;
32393;SDS011;18853;45.426;9.206;2022-09-25T07:47:07;27.92;;;24.88;;
32393;SDS011;18853;45.426;9.206;2022-09-25T07:49:33;29.65;;;25.80;;
32393;SDS011;18853;45.426;9.206;2022-09-25T07:51:59;28.67;;;24.75;;
32393;SDS011;18853;45.426;9.206;2022-09-25T07:54:25;31.65;;;25.83;;
32393;SDS011;18853;45.426;9.206;2022-09-25T07:56:51;29.45;;;24.52;;
32393;SDS011;18853;45.426;9.206;2022-09-25T07:59:17;27.42;;;24.42;;
32393;SDS011;18853;45.426;9.206;2022-09-25T08:01:42;29.42;;;25.55;;
32393;SDS011;18853;45.426;9.206;2022-09-25T08:04:08;27.73;;;24.48;;
32393;SDS011;18853;45.426;9.206;2022-09-25T08:06:34;27.20;;;24.25;;
32393;SDS011;18853;45.426;9.206;2022-09-25T08:09:00;28.30;;;25.30;;
32393;SDS011;18853;45.426;9.206;2022-09-25T08:11:26;28.02;;;24.77;;
32393;SDS011;18853;45.426;9.206;2022-09-25T08:13:55;28.67;;;24.85;;
32393;SDS011;18853;45.426;9.206;2022-09-25T08:16:21;29.25;;;24.52;;
32393;SDS011;18853;45.426;9.206;2022-09-25T08:18:47;27.48;;;24.38;;
32393;SDS011;18853;45.426;9.206;2022-09-25T08:21:15;28.90;;;25.75;;
32393;SDS011;18853;45.426;9.206;2022-09-25T08:23:43;30.90;;;27.33;;
32393;SDS011;18853;45.426;9.206;2022-09-25T08:26:12;31.90;;;28.50;;
32393;SDS011;18853;45.426;9.206;2022-09-25T08:28:38;30.98;;;27.60;;
32393;SDS011;18853;45.426;9.206;2022-09-25T08:31:04;30.25;;;27.02;;
32393;SDS011;18853;45.426;9.206;2022-09-25T08:33:30;29.52;;;26.33;;
32393;SDS011;18853;45.426;9.206;2022-09-25T08:35:59;28.73;;;25.73;;
32393;SDS011;18853;45.426;9.206;2022-09-25T08:38:26;26.42;;;23.23;;
32393;SDS011;18853;45.426;9.206;2022-09-25T08:43:21;28.73;;;25.45;;
32393;SDS011;18853;45.426;9.206;2022-09-25T08:45:54;29.08;;;25.98;;
32393;SDS011;18853;45.426;9.206;2022-09-25T08:51:31;28.58;;;24.15;;
32393;SDS011;18853;45.426;9.206;2022-09-25T08:54:00;27.50;;;24.30;;
32393;SDS011;18853;45.426;9.206;2022-09-25T08:56:28;29.85;;;26.08;;
32393;SDS011;18853;45.426;9.206;2022-09-25T08:59:00;30.73;;;26.48;;
32393;SDS011;18853;45.426;9.206;2022-09-25T09:04:18;27.23;;;24.05;;
32393;SDS011;18853;45.426;9.206;2022-09-25T09:06:57;25.63;;;22.92;;
32393;SDS011;18853;45.426;9.206;2022-09-25T09:09:31;28.33;;;24.08;;
32393;SDS011;18853;45.426;9.206;2022-09-25T09:14:51;27.23;;;24.33;;
32393;SDS011;18853;45.426;9.206;2022-09-25T09:17:30;26.38;;;23.48;;
32393;SDS011;18853;45.426;9.206;2022-09-25T09:20:18;28.02;;;24.60;;
32393;SDS011;18853;45.426;9.206;2022-09-25T09:22:48;27.15;;;22.83;;
32393;SDS011;18853;45.426;9.206;2022-09-25T09:30:52;24.90;;;22.02;;
32393;SDS011;18853;45.426;9.206;2022-09-25T09:36:34;24.17;;;21.63;;
32393;SDS011;18853;45.426;9.206;2022-09-25T09:39:13;24.08;;;20.63;;
32393;SDS011;18853;45.426;9.206;2022-09-25T09:47:10;25.88;;;20.33;;
32393;SDS011;18853;45.426;9.206;2022-09-25T09:53:01;22.85;;;20.35;;
32393;SDS011;18853;45.426;9.206;2022-09-25T09:55:40;20.77;;;18.58;;
32393;SDS011;18853;45.426;9.206;2022-09-25T09:58:16;20.50;;;18.13;;
32393;SDS011;18853;45.426;9.206;2022-09-25T10:00:44;23.23;;;18.17;;
32393;SDS011;18853;45.426;9.206;2022-09-25T10:05:54;21.20;;;18.90;;
32393;SDS011;18853;45.426;9.206;2022-09-25T10:08:23;21.85;;;18.40;;
32393;SDS011;18853;45.426;9.206;2022-09-25T10:10:49;22.38;;;18.90;;
32393;SDS011;18853;45.426;9.206;2022-09-25T10:13:21;22.50;;;19.63;;
32393;SDS011;18853;45.426;9.206;2022-09-25T10:18:23;23.45;;;20.02;;
32393;SDS011;18853;45.426;9.206;2022-09-25T10:23:57;22.38;;;18.80;;
32393;SDS011;18853;45.426;9.206;2022-09-25T10:26:24;21.42;;;19.08;;
32393;SDS011;18853;45.426;9.206;2022-09-25T10:28:50;20.42;;;18.20;;
32393;SDS011;18853;45.426;9.206;2022-09-25T10:31:16;21.40;;;19.10;;
32393;SDS011;18853;45.426;9.206;2022-09-25T10:33:56;22.73;;;18.65;;
32393;SDS011;18853;45.426;9.206;2022-09-25T10:36:36;22.00;;;17.60;;
32393;SDS011;18853;45.426;9.206;2022-09-25T10:41:48;22.77;;;20.38;;
32393;SDS011;18853;45.426;9.206;2022-09-25T10:44:35;22.63;;;19.60;;
32393;SDS011;18853;45.426;9.206;2022-09-25T10:52:45;22.48;;;20.17;;
32393;SDS011;18853;45.426;9.206;2022-09-25T10:57:51;24.67;;;21.52;;
32393;SDS011;18853;45.426;9.206;2022-09-25T11:00:34;22.23;;;19.92;;
32393;SDS011;18853;45.426;9.206;2022-09-25T11:03:05;25.40;;;22.70;;
32393;SDS011;18853;45.426;9.206;2022-09-25T11:05:33;23.00;;;20.48;;
32393;SDS011;18853;45.426;9.206;2022-09-25T11:08:01;22.65;;;20.23;;
32393;SDS011;18853;45.426;9.206;2022-09-25T11:10:33;23.90;;;21.52;;
32393;SDS011;18853;45.426;9.206;2022-09-25T11:13:06;23.67;;;21.13;;
32393;SDS011;18853;45.426;9.206;2022-09-25T11:15:40;23.42;;;21.00;;
32393;SDS011;18853;45.426;9.206;2022-09-25T11:21:03;20.80;;;18.63;;
32393;SDS011;18853;45.426;9.206;2022-09-25T11:33:51;18.90;;;16.88;;
32393;SDS011;18853;45.426;9.206;2022-09-25T11:36:44;17.02;;;15.30;;
32393;SDS011;18853;45.426;9.206;2022-09-25T11:39:24;17.80;;;15.25;;
32393;SDS011;18853;45.426;9.206;2022-09-25T11:42:23;15.50;;;13.90;;
32393;SDS011;18853;45.426;9.206;2022-09-25T11:45:04;14.75;;;13.15;;
32393;SDS011;18853;45.426;9.206;2022-09-25T11:56:41;15.27;;;13.15;;
32393;SDS011;18853;45.426;9.206;2022-09-25T12:02:36;16.15;;;14.45;;
32393;SDS011;18853;45.426;9.206;2022-09-25T12:05:28;14.18;;;12.63;;
32393;SDS011;18853;45.426;9.206;2022-09-25T12:08:06;14.93;;;12.38;;
32393;SDS011;18853;45.426;9.206;2022-09-25T12:16:06;13.80;;;12.20;;
32393;SDS011;18853;45.426;9.206;2022-09-25T12:25:25;9.70;;;8.35;;
32393;SDS011;18853;45.426;9.206;2022-09-25T12:29:53;6.70;;;6.00;;
32393;SDS011;18853;45.426;9.206;2022-09-25T12:43:21;7.88;;;6.88;;
32393;SDS011;18853;45.426;9.206;2022-09-25T12:45:50;7.03;;;6.03;;
32393;SDS011;18853;45.426;9.206;2022-09-25T12:54:25;6.10;;;5.20;;
32393;SDS011;18853;45.426;9.206;2022-09-25T12:57:03;5.43;;;4.75;;
32393;SDS011;18853;45.426;9.206;2022-09-25T12:59:38;6.97;;;5.72;;
32393;SDS011;18853;45.426;9.206;2022-09-25T13:07:49;5.68;;;4.47;;
32393;SDS011;18853;45.426;9.206;2022-09-25T13:13:28;8.35;;;5.25;;
32393;SDS011;18853;45.426;9.206;2022-09-25T13:16:00;5.85;;;5.25;;
32393;SDS011;18853;45.426;9.206;2022-09-25T13:18:27;6.30;;;4.55;;
32393;SDS011;18853;45.426;9.206;2022-09-25T13:20:55;5.40;;;4.53;;
32393;SDS011;18853;45.426;9.206;2022-09-25T13:23:40;5.60;;;5.00;;
32393;SDS011;18853;45.426;9.206;2022-09-25T13:26:12;5.90;;;4.97;;
32393;SDS011;18853;45.426;9.206;2022-09-25T13:28:48;6.55;;;4.53;;
32393;SDS011;18853;45.426;9.206;2022-09-25T13:31:25;6.60;;;4.80;;
32393;SDS011;18853;45.426;9.206;2022-09-25T13:38:57;5.15;;;3.80;;
32393;SDS011;18853;45.426;9.206;2022-09-25T13:41:53;4.30;;;3.75;;
32393;SDS011;18853;45.426;9.206;2022-09-25T13:49:53;5.38;;;3.97;;
32393;SDS011;18853;45.426;9.206;2022-09-25T13:52:30;5.53;;;4.38;;
32393;SDS011;18853;45.426;9.206;2022-09-25T13:55:40;5.57;;;4.30;;
32393;SDS011;18853;45.426;9.206;2022-09-25T13:58:24;5.70;;;4.75;;
32393;SDS011;18853;45.426;9.206;2022-09-25T14:00:56;5.80;;;4.32;;
32393;SDS011;18853;45.426;9.206;2022-09-25T14:03:30;4.80;;;4.30;;
32393;SDS011;18853;45.426;9.206;2022-09-25T14:06:25;7.10;;;4.90;;
32393;SDS011;18853;45.426;9.206;2022-09-25T14:08:58;6.47;;;5.40;;
32393;SDS011;18853;45.426;9.206;2022-09-25T14:11:32;7.07;;;5.22;;
32393;SDS011;18853;45.426;9.206;2022-09-25T14:14:04;5.57;;;4.70;;
32393;SDS011;18853;45.426;9.206;2022-09-25T14:16:51;6.28;;;4.65;;
32393;SDS011;18853;45.426;9.206;2022-09-25T14:19:20;9.57;;;8.40;;
32393;SDS011;18853;45.426;9.206;2022-09-25T14:21:53;8.88;;;8.00;;
32393;SDS011;18853;45.426;9.206;2022-09-25T14:24:27;8.02;;;7.25;;
32393;SDS011;18853;45.426;9.206;2022-09-25T14:26:58;11.13;;;9.95;;
32393;SDS011;18853;45.426;9.206;2022-09-25T14:32:53;13.18;;;10.23;;
32393;SDS011;18853;45.426;9.206;2022-09-25T14:35:49;14.15;;;12.85;;
32393;SDS011;18853;45.426;9.206;2022-09-25T14:38:38;17.70;;;16.10;;
32393;SDS011;18853;45.426;9.206;2022-09-25T14:46:59;14.63;;;13.23;;
32393;SDS011;18853;45.426;9.206;2022-09-25T14:49:31;13.82;;;12.52;;
32393;SDS011;18853;45.426;9.206;2022-09-25T14:52:04;12.13;;;11.02;;
32393;SDS011;18853;45.426;9.206;2022-09-25T14:54:37;14.18;;;12.85;;
32393;SDS011;18853;45.426;9.206;2022-09-25T14:57:07;14.38;;;12.90;;
32393;SDS011;18853;45.426;9.206;2022-09-25T15:04:47;10.35;;;9.35;;
32393;SDS011;18853;45.426;9.206;2022-09-25T15:07:14;11.45;;;10.30;;
32393;SDS011;18853;45.426;9.206;2022-09-25T15:09:43;12.63;;;11.32;;
32393;SDS011;18853;45.426;9.206;2022-09-25T15:12:18;14.20;;;11.38;;
32393;SDS011;18853;45.426;9.206;2022-09-25T15:17:32;9.02;;;8.13;;
32393;SDS011;18853;45.426;9.206;2022-09-25T15:20:14;10.68;;;8.93;;
32393;SDS011;18853;45.426;9.206;2022-09-25T15:22:46;10.77;;;9.60;;
32393;SDS011;18853;45.426;9.206;2022-09-25T15:25:40;9.30;;;8.30;;
32393;SDS011;18853;45.426;9.206;2022-09-25T15:28:13;11.35;;;10.25;;
32393;SDS011;18853;45.426;9.206;2022-09-25T15:30:44;10.50;;;9.50;;
32393;SDS011;18853;45.426;9.206;2022-09-25T15:33:21;11.15;;;10.00;;
32393;SDS011;18853;45.426;9.206;2022-09-25T15:35:54;9.73;;;8.75;;
32393;SDS011;18853;45.426;9.206;2022-09-25T15:38:26;9.13;;;8.25;;
32393;SDS011;18853;45.426;9.206;2022-09-25T15:40:53;9.25;;;8.35;;
32393;SDS011;18853;45.426;9.206;2022-09-25T15:43:19;10.57;;;9.57;;
32393;SDS011;18853;45.426;9.206;2022-09-25T15:48:23;11.57;;;10.45;;
32393;SDS011;18853;45.426;9.206;2022-09-25T15:50:53;15.07;;;13.65;;
32393;SDS011;18853;45.426;9.206;2022-09-25T15:53:21;12.95;;;11.70;;
32393;SDS011;18853;45.426;9.206;2022-09-25T15:55:59;11.57;;;10.27;;
32393;SDS011;18853;45.426;9.206;2022-09-25T15:58:52;11.20;;;10.10;;
32393;SDS011;18853;45.426;9.206;2022-09-25T16:01:22;11.55;;;10.45;;
32393;SDS011;18853;45.426;9.206;2022-09-25T16:04:09;9.85;;;8.95;;
32393;SDS011;18853;45.426;9.206;2022-09-25T16:10:03;9.45;;;8.45;;
32393;SDS011;18853;45.426;9.206;2022-09-25T16:17:54;9.73;;;8.75;;
32393;SDS011;18853;45.426;9.206;2022-09-25T16:20:29;9.73;;;8.73;;
32393;SDS011;18853;45.426;9.206;2022-09-25T16:22:55;10.57;;;8.75;;
32393;SDS011;18853;45.426;9.206;2022-09-25T16:25:34;8.77;;;7.85;;
32393;SDS011;18853;45.426;9.206;2022-09-25T16:30:37;8.57;;;7.55;;
32393;SDS011;18853;45.426;9.206;2022-09-25T16:33:19;7.95;;;7.15;;
32393;SDS011;18853;45.426;9.206;2022-09-25T16:35:49;8.48;;;7.57;;
32393;SDS011;18853;45.426;9.206;2022-09-25T16:38:29;8.85;;;7.45;;
32393;SDS011;18853;45.426;9.206;2022-09-25T16:43:29;9.40;;;8.10;;
32393;SDS011;18853;45.426;9.206;2022-09-25T16:45:58;9.30;;;8.40;;
32393;SDS011;18853;45.426;9.206;2022-09-25T16:48:27;9.07;;;7.97;;
32393;SDS011;18853;45.426;9.206;2022-09-25T16:50:54;9.23;;;8.30;;
32393;SDS011;18853;45.426;9.206;2022-09-25T16:53:23;9.30;;;8.38;;
32393;SDS011;18853;45.426;9.206;2022-09-25T16:55:50;8.82;;;7.93;;
32393;SDS011;18853;45.426;9.206;2022-09-25T16:58:18;8.98;;;7.95;;
32393;SDS011;18853;45.426;9.206;2022-09-25T17:00:44;9.30;;;8.40;;
32393;SDS011;18853;45.426;9.206;2022-09-25T17:03:13;8.25;;;7.38;;
32393;SDS011;18853;45.426;9.206;2022-09-25T17:05:39;8.68;;;7.80;;
32393;SDS011;18853;45.426;9.206;2022-09-25T17:08:23;12.07;;;8.00;;
32393;SDS011;18853;45.426;9.206;2022-09-25T17:10:49;9.43;;;8.45;;
32393;SDS011;18853;45.426;9.206;2022-09-25T17:13:16;10.38;;;8.40;;
32393;SDS011;18853;45.426;9.206;2022-09-25T17:15:46;9.52;;;8.35;;
32393;SDS011;18853;45.426;9.206;2022-09-25T17:18:16;9.50;;;8.50;;
32393;SDS011;18853;45.426;9.206;2022-09-25T17:20:43;9.00;;;8.00;;
32393;SDS011;18853;45.426;9.206;2022-09-25T17:23:10;9.48;;;8.50;;
32393;SDS011;18853;45.426;9.206;2022-09-25T17:25:42;9.02;;;8.13;;
32393;SDS011;18853;45.426;9.206;2022-09-25T17:28:12;19.45;;;14.60;;
32393;SDS011;18853;45.426;9.206;2022-09-25T17:30:39;9.13;;;8.20;;
32393;SDS011;18853;45.426;9.206;2022-09-25T17:33:09;9.07;;;8.15;;
32393;SDS011;18853;45.426;9.206;2022-09-25T17:38:09;9.55;;;8.25;;
32393;SDS011;18853;45.426;9.206;2022-09-25T17:40:37;10.07;;;8.60;;
32393;SDS011;18853;45.426;9.206;2022-09-25T17:43:03;10.30;;;8.82;;
32393;SDS011;18853;45.426;9.206;2022-09-25T17:45:31;10.63;;;9.13;;
32393;SDS011;18853;45.426;9.206;2022-09-25T17:48:03;8.80;;;7.83;;
32393;SDS011;18853;45.426;9.206;2022-09-25T17:50:29;10.43;;;9.02;;
32393;SDS011;18853;45.426;9.206;2022-09-25T17:52:56;9.75;;;8.77;;
32393;SDS011;18853;45.426;9.206;2022-09-25T17:55:23;9.88;;;8.82;;
32393;SDS011;18853;45.426;9.206;2022-09-25T17:57:48;11.90;;;9.57;;
32393;SDS011;18853;45.426;9.206;2022-09-25T18:00:14;10.13;;;9.02;;